sensor_id;sensor_type;location;lat;lon;timestamp;P1;durP1;ratioP1;P2;durP2;ratioP2
73474;SDS011;61711;52.266;10.542;2023-07-09T00:02:12;9.20;;;7.60;;
73474;SDS011;61711;52.266;10.542;2023-07-09T00:04:38;10.35;;;7.90;;
73474;SDS011;61711;52.266;10.542;2023-07-09T00:07:04;9.45;;;7.63;;
73474;SDS011;61711;52.266;10.542;2023-07-09T00:09:31;9.60;;;7.72;;
73474;SDS011;61711;52.266;10.542;2023-07-09T00:11:57;8.32;;;7.50;;
73474;SDS011;61711;52.266;10.542;2023-07-09T00:14:23;9.57;;;7.43;;
73474;SDS011;61711;52.266;10.542;2023-07-09T00:16:49;8.65;;;7.68;;
73474;SDS011;61711;52.266;10.542;2023-07-09T00:19:17;8.50;;;7.45;;
73474;SDS011;61711;52.266;10.542;2023-07-09T00:21:44;8.77;;;7.32;;
73474;SDS011;61711;52.266;10.542;2023-07-09T00:24:13;10.95;;;8.00;;
73474;SDS011;61711;52.266;10.542;2023-07-09T00:26:39;8.38;;;7.47;;
73474;SDS011;61711;52.266;10.542;2023-07-09T00:29:09;9.10;;;7.75;;
73474;SDS011;61711;52.266;10.542;2023-07-09T00:31:35;9.75;;;7.80;;
73474;SDS011;61711;52.266;10.542;2023-07-09T00:34:06;8.85;;;7.95;;
73474;SDS011;61711;52.266;10.542;2023-07-09T00:36:32;13.18;;;7.90;;
73474;SDS011;61711;52.266;10.542;2023-07-09T00:38:59;9.38;;;7.60;;
73474;SDS011;61711;52.266;10.542;2023-07-09T00:41:29;9.23;;;7.68;;
73474;SDS011;61711;52.266;10.542;2023-07-09T00:44:01;8.20;;;7.25;;
73474;SDS011;61711;52.266;10.542;2023-07-09T00:49:11;8.82;;;7.55;;
73474;SDS011;61711;52.266;10.542;2023-07-09T00:51:42;9.70;;;7.50;;
73474;SDS011;61711;52.266;10.542;2023-07-09T00:54:23;9.23;;;7.18;;
73474;SDS011;61711;52.266;10.542;2023-07-09T00:56:55;9.27;;;7.47;;
73474;SDS011;61711;52.266;10.542;2023-07-09T00:59:24;9.00;;;7.45;;
73474;SDS011;61711;52.266;10.542;2023-07-09T01:01:53;9.00;;;7.60;;
73474;SDS011;61711;52.266;10.542;2023-07-09T01:04:20;9.93;;;7.95;;
73474;SDS011;61711;52.266;10.542;2023-07-09T01:06:49;10.77;;;8.10;;
73474;SDS011;61711;52.266;10.542;2023-07-09T01:09:16;10.05;;;7.55;;
73474;SDS011;61711;52.266;10.542;2023-07-09T01:11:42;10.50;;;7.63;;
73474;SDS011;61711;52.266;10.542;2023-07-09T01:14:09;8.93;;;7.75;;
73474;SDS011;61711;52.266;10.542;2023-07-09T01:16:37;10.32;;;7.70;;
73474;SDS011;61711;52.266;10.542;2023-07-09T01:19:04;10.07;;;7.90;;
73474;SDS011;61711;52.266;10.542;2023-07-09T01:21:30;11.00;;;8.05;;
73474;SDS011;61711;52.266;10.542;2023-07-09T01:23:57;9.60;;;8.13;;
73474;SDS011;61711;52.266;10.542;2023-07-09T01:26:25;8.73;;;7.82;;
73474;SDS011;61711;52.266;10.542;2023-07-09T01:28:52;9.00;;;8.18;;
73474;SDS011;61711;52.266;10.542;2023-07-09T01:31:18;10.60;;;8.27;;
73474;SDS011;61711;52.266;10.542;2023-07-09T01:33:45;10.30;;;9.18;;
73474;SDS011;61711;52.266;10.542;2023-07-09T01:36:13;10.35;;;8.68;;
73474;SDS011;61711;52.266;10.542;2023-07-09T01:38:40;9.10;;;8.10;;
73474;SDS011;61711;52.266;10.542;2023-07-09T01:41:06;9.13;;;8.02;;
73474;SDS011;61711;52.266;10.542;2023-07-09T01:43:32;9.07;;;8.00;;
73474;SDS011;61711;52.266;10.542;2023-07-09T01:45:58;11.32;;;8.13;;
73474;SDS011;61711;52.266;10.542;2023-07-09T01:48:24;9.13;;;8.02;;
73474;SDS011;61711;52.266;10.542;2023-07-09T01:50:51;9.98;;;7.70;;
73474;SDS011;61711;52.266;10.542;2023-07-09T01:53:18;9.52;;;7.75;;
73474;SDS011;61711;52.266;10.542;2023-07-09T01:55:45;11.70;;;7.70;;
73474;SDS011;61711;52.266;10.542;2023-07-09T01:58:11;9.40;;;7.95;;
73474;SDS011;61711;52.266;10.542;2023-07-09T02:00:37;9.60;;;7.82;;
73474;SDS011;61711;52.266;10.542;2023-07-09T02:03:06;9.98;;;7.53;;
73474;SDS011;61711;52.266;10.542;2023-07-09T02:05:32;8.98;;;7.50;;
73474;SDS011;61711;52.266;10.542;2023-07-09T02:07:59;7.90;;;7.07;;
73474;SDS011;61711;52.266;10.542;2023-07-09T02:10:25;7.97;;;6.88;;
73474;SDS011;61711;52.266;10.542;2023-07-09T02:12:51;8.68;;;6.97;;
73474;SDS011;61711;52.266;10.542;2023-07-09T02:15:17;12.77;;;7.72;;
73474;SDS011;61711;52.266;10.542;2023-07-09T02:17:43;11.02;;;7.57;;
73474;SDS011;61711;52.266;10.542;2023-07-09T02:20:09;9.50;;;7.45;;
73474;SDS011;61711;52.266;10.542;2023-07-09T02:22:36;9.80;;;7.50;;
73474;SDS011;61711;52.266;10.542;2023-07-09T02:25:03;9.90;;;7.60;;
73474;SDS011;61711;52.266;10.542;2023-07-09T02:27:30;9.07;;;7.65;;
73474;SDS011;61711;52.266;10.542;2023-07-09T02:29:56;8.40;;;7.47;;
73474;SDS011;61711;52.266;10.542;2023-07-09T02:32:24;8.57;;;7.60;;
73474;SDS011;61711;52.266;10.542;2023-07-09T02:34:53;9.75;;;7.75;;
73474;SDS011;61711;52.266;10.542;2023-07-09T02:37:20;9.40;;;7.60;;
73474;SDS011;61711;52.266;10.542;2023-07-09T02:39:46;9.70;;;8.18;;
73474;SDS011;61711;52.266;10.542;2023-07-09T02:42:14;8.80;;;7.90;;
73474;SDS011;61711;52.266;10.542;2023-07-09T02:44:40;10.10;;;7.38;;
73474;SDS011;61711;52.266;10.542;2023-07-09T02:47:06;8.80;;;7.63;;
73474;SDS011;61711;52.266;10.542;2023-07-09T02:49:33;10.45;;;8.20;;
73474;SDS011;61711;52.266;10.542;2023-07-09T02:51:59;9.77;;;8.32;;
73474;SDS011;61711;52.266;10.542;2023-07-09T02:54:25;9.63;;;7.97;;
73474;SDS011;61711;52.266;10.542;2023-07-09T02:56:51;9.88;;;8.18;;
73474;SDS011;61711;52.266;10.542;2023-07-09T02:59:17;8.68;;;7.88;;
73474;SDS011;61711;52.266;10.542;2023-07-09T03:01:43;10.70;;;7.70;;
73474;SDS011;61711;52.266;10.542;2023-07-09T03:04:10;10.85;;;8.63;;
73474;SDS011;61711;52.266;10.542;2023-07-09T03:06:36;10.52;;;8.40;;
73474;SDS011;61711;52.266;10.542;2023-07-09T03:09:03;9.32;;;8.00;;
73474;SDS011;61711;52.266;10.542;2023-07-09T03:11:30;10.02;;;8.27;;
73474;SDS011;61711;52.266;10.542;2023-07-09T03:13:57;12.27;;;8.48;;
73474;SDS011;61711;52.266;10.542;2023-07-09T03:16:23;9.77;;;8.15;;
73474;SDS011;61711;52.266;10.542;2023-07-09T03:18:49;10.20;;;8.77;;
73474;SDS011;61711;52.266;10.542;2023-07-09T03:21:15;9.90;;;7.95;;
73474;SDS011;61711;52.266;10.542;2023-07-09T03:23:41;9.13;;;8.13;;
73474;SDS011;61711;52.266;10.542;2023-07-09T03:26:07;10.50;;;8.02;;
73474;SDS011;61711;52.266;10.542;2023-07-09T03:28:33;9.20;;;8.30;;
73474;SDS011;61711;52.266;10.542;2023-07-09T03:30:59;9.95;;;8.25;;
73474;SDS011;61711;52.266;10.542;2023-07-09T03:33:25;10.02;;;8.50;;
73474;SDS011;61711;52.266;10.542;2023-07-09T03:35:52;9.40;;;8.40;;
73474;SDS011;61711;52.266;10.542;2023-07-09T03:38:18;10.05;;;8.23;;
73474;SDS011;61711;52.266;10.542;2023-07-09T03:40:44;9.27;;;8.15;;
73474;SDS011;61711;52.266;10.542;2023-07-09T03:43:11;9.38;;;8.48;;
73474;SDS011;61711;52.266;10.542;2023-07-09T03:45:37;9.50;;;8.20;;
73474;SDS011;61711;52.266;10.542;2023-07-09T03:48:04;10.55;;;7.88;;
73474;SDS011;61711;52.266;10.542;2023-07-09T03:50:30;9.40;;;8.40;;
73474;SDS011;61711;52.266;10.542;2023-07-09T03:52:56;9.60;;;8.02;;
73474;SDS011;61711;52.266;10.542;2023-07-09T03:55:22;9.85;;;8.68;;
73474;SDS011;61711;52.266;10.542;2023-07-09T03:57:51;10.05;;;8.60;;
73474;SDS011;61711;52.266;10.542;2023-07-09T04:00:17;9.48;;;8.40;;
73474;SDS011;61711;52.266;10.542;2023-07-09T04:02:43;9.68;;;8.68;;
73474;SDS011;61711;52.266;10.542;2023-07-09T04:05:09;11.98;;;8.68;;
73474;SDS011;61711;52.266;10.542;2023-07-09T04:07:36;10.80;;;9.05;;
73474;SDS011;61711;52.266;10.542;2023-07-09T04:10:02;9.48;;;8.48;;
73474;SDS011;61711;52.266;10.542;2023-07-09T04:12:28;10.02;;;8.93;;
73474;SDS011;61711;52.266;10.542;2023-07-09T04:14:54;9.65;;;8.73;;
73474;SDS011;61711;52.266;10.542;2023-07-09T04:17:20;11.45;;;8.68;;
73474;SDS011;61711;52.266;10.542;2023-07-09T04:19:48;10.40;;;8.65;;
73474;SDS011;61711;52.266;10.542;2023-07-09T04:22:14;10.23;;;8.82;;
73474;SDS011;61711;52.266;10.542;2023-07-09T04:24:40;13.40;;;8.68;;
73474;SDS011;61711;52.266;10.542;2023-07-09T04:27:06;10.40;;;8.85;;
73474;SDS011;61711;52.266;10.542;2023-07-09T04:29:32;9.60;;;8.60;;
73474;SDS011;61711;52.266;10.542;2023-07-09T04:32:04;9.93;;;8.73;;
73474;SDS011;61711;52.266;10.542;2023-07-09T04:34:30;10.07;;;8.57;;
73474;SDS011;61711;52.266;10.542;2023-07-09T04:36:56;9.30;;;8.32;;
73474;SDS011;61711;52.266;10.542;2023-07-09T04:39:22;9.95;;;8.75;;
73474;SDS011;61711;52.266;10.542;2023-07-09T04:41:48;10.02;;;9.00;;
73474;SDS011;61711;52.266;10.542;2023-07-09T04:44:14;11.27;;;8.82;;
73474;SDS011;61711;52.266;10.542;2023-07-09T04:46:40;10.07;;;8.82;;
73474;SDS011;61711;52.266;10.542;2023-07-09T04:49:06;13.07;;;8.95;;
73474;SDS011;61711;52.266;10.542;2023-07-09T04:51:32;9.63;;;8.65;;
73474;SDS011;61711;52.266;10.542;2023-07-09T04:53:58;10.10;;;9.10;;
73474;SDS011;61711;52.266;10.542;2023-07-09T04:56:29;10.63;;;9.52;;
73474;SDS011;61711;52.266;10.542;2023-07-09T04:58:55;12.52;;;9.43;;
73474;SDS011;61711;52.266;10.542;2023-07-09T05:01:21;12.45;;;9.07;;
73474;SDS011;61711;52.266;10.542;2023-07-09T05:03:47;11.77;;;9.30;;
73474;SDS011;61711;52.266;10.542;2023-07-09T05:06:13;10.35;;;8.95;;
73474;SDS011;61711;52.266;10.542;2023-07-09T05:08:39;11.13;;;9.40;;
73474;SDS011;61711;52.266;10.542;2023-07-09T05:11:06;11.35;;;8.65;;
73474;SDS011;61711;52.266;10.542;2023-07-09T05:13:32;10.75;;;9.25;;
73474;SDS011;61711;52.266;10.542;2023-07-09T05:15:58;10.50;;;9.40;;
73474;SDS011;61711;52.266;10.542;2023-07-09T05:18:24;12.18;;;9.38;;
73474;SDS011;61711;52.266;10.542;2023-07-09T05:20:50;10.65;;;9.00;;
73474;SDS011;61711;52.266;10.542;2023-07-09T05:23:16;10.30;;;9.23;;
73474;SDS011;61711;52.266;10.542;2023-07-09T05:25:42;11.75;;;9.55;;
73474;SDS011;61711;52.266;10.542;2023-07-09T05:28:08;12.18;;;9.60;;
73474;SDS011;61711;52.266;10.542;2023-07-09T05:30:34;13.50;;;9.65;;
73474;SDS011;61711;52.266;10.542;2023-07-09T05:33:00;10.73;;;9.10;;
73474;SDS011;61711;52.266;10.542;2023-07-09T05:35:26;10.75;;;9.65;;
73474;SDS011;61711;52.266;10.542;2023-07-09T05:37:53;11.75;;;9.77;;
73474;SDS011;61711;52.266;10.542;2023-07-09T05:40:19;10.50;;;9.38;;
73474;SDS011;61711;52.266;10.542;2023-07-09T05:42:46;10.15;;;9.02;;
73474;SDS011;61711;52.266;10.542;2023-07-09T05:45:12;9.93;;;8.93;;
73474;SDS011;61711;52.266;10.542;2023-07-09T05:47:38;11.13;;;9.27;;
73474;SDS011;61711;52.266;10.542;2023-07-09T05:50:04;11.32;;;9.27;;
73474;SDS011;61711;52.266;10.542;2023-07-09T05:52:31;11.25;;;10.15;;
73474;SDS011;61711;52.266;10.542;2023-07-09T05:54:57;11.50;;;9.45;;
73474;SDS011;61711;52.266;10.542;2023-07-09T05:57:24;11.82;;;9.25;;
73474;SDS011;61711;52.266;10.542;2023-07-09T05:59:50;10.23;;;9.13;;
73474;SDS011;61711;52.266;10.542;2023-07-09T06:02:17;10.32;;;9.30;;
73474;SDS011;61711;52.266;10.542;2023-07-09T06:04:43;9.98;;;8.98;;
73474;SDS011;61711;52.266;10.542;2023-07-09T06:07:10;10.27;;;9.27;;
73474;SDS011;61711;52.266;10.542;2023-07-09T06:09:36;10.88;;;9.30;;
73474;SDS011;61711;52.266;10.542;2023-07-09T06:12:02;9.80;;;8.90;;
73474;SDS011;61711;52.266;10.542;2023-07-09T06:14:28;10.43;;;9.32;;
73474;SDS011;61711;52.266;10.542;2023-07-09T06:16:54;13.50;;;9.43;;
73474;SDS011;61711;52.266;10.542;2023-07-09T06:19:20;10.50;;;9.30;;
73474;SDS011;61711;52.266;10.542;2023-07-09T06:21:46;10.98;;;9.60;;
73474;SDS011;61711;52.266;10.542;2023-07-09T06:24:12;9.90;;;8.90;;
73474;SDS011;61711;52.266;10.542;2023-07-09T06:26:38;11.13;;;9.43;;
73474;SDS011;61711;52.266;10.542;2023-07-09T06:29:05;10.48;;;9.48;;
73474;SDS011;61711;52.266;10.542;2023-07-09T06:31:31;9.77;;;8.85;;
73474;SDS011;61711;52.266;10.542;2023-07-09T06:33:57;11.85;;;9.57;;
73474;SDS011;61711;52.266;10.542;2023-07-09T06:36:23;10.63;;;9.45;;
73474;SDS011;61711;52.266;10.542;2023-07-09T06:38:49;17.30;;;9.55;;
73474;SDS011;61711;52.266;10.542;2023-07-09T06:41:15;11.00;;;9.98;;
73474;SDS011;61711;52.266;10.542;2023-07-09T06:43:41;10.88;;;9.88;;
73474;SDS011;61711;52.266;10.542;2023-07-09T06:46:09;11.07;;;9.98;;
73474;SDS011;61711;52.266;10.542;2023-07-09T06:48:36;11.65;;;10.43;;
73474;SDS011;61711;52.266;10.542;2023-07-09T06:51:02;12.38;;;10.00;;
73474;SDS011;61711;52.266;10.542;2023-07-09T06:53:28;10.68;;;9.52;;
73474;SDS011;61711;52.266;10.542;2023-07-09T06:55:54;11.63;;;10.43;;
73474;SDS011;61711;52.266;10.542;2023-07-09T06:58:23;10.93;;;9.70;;
73474;SDS011;61711;52.266;10.542;2023-07-09T07:00:50;14.93;;;10.52;;
73474;SDS011;61711;52.266;10.542;2023-07-09T07:03:17;11.52;;;10.43;;
73474;SDS011;61711;52.266;10.542;2023-07-09T07:05:47;11.93;;;10.13;;
73474;SDS011;61711;52.266;10.542;2023-07-09T07:08:16;12.15;;;9.90;;
73474;SDS011;61711;52.266;10.542;2023-07-09T07:10:43;11.07;;;9.77;;
73474;SDS011;61711;52.266;10.542;2023-07-09T07:13:10;10.98;;;9.80;;
73474;SDS011;61711;52.266;10.542;2023-07-09T07:15:37;10.80;;;9.80;;
73474;SDS011;61711;52.266;10.542;2023-07-09T07:18:04;14.18;;;10.02;;
73474;SDS011;61711;52.266;10.542;2023-07-09T07:20:30;10.57;;;9.57;;
73474;SDS011;61711;52.266;10.542;2023-07-09T07:22:56;11.77;;;9.55;;
73474;SDS011;61711;52.266;10.542;2023-07-09T07:25:23;11.55;;;9.70;;
73474;SDS011;61711;52.266;10.542;2023-07-09T07:27:49;11.20;;;10.05;;
73474;SDS011;61711;52.266;10.542;2023-07-09T07:30:16;11.30;;;9.23;;
73474;SDS011;61711;52.266;10.542;2023-07-09T07:32:43;13.85;;;10.00;;
73474;SDS011;61711;52.266;10.542;2023-07-09T07:35:09;11.07;;;9.95;;
73474;SDS011;61711;52.266;10.542;2023-07-09T07:37:35;11.68;;;10.48;;
73474;SDS011;61711;52.266;10.542;2023-07-09T07:40:01;10.82;;;9.73;;
73474;SDS011;61711;52.266;10.542;2023-07-09T07:42:29;11.43;;;10.00;;
73474;SDS011;61711;52.266;10.542;2023-07-09T07:44:55;11.05;;;9.95;;
73474;SDS011;61711;52.266;10.542;2023-07-09T07:47:21;11.57;;;10.38;;
73474;SDS011;61711;52.266;10.542;2023-07-09T07:49:48;10.60;;;9.63;;
73474;SDS011;61711;52.266;10.542;2023-07-09T07:52:14;11.15;;;9.90;;
73474;SDS011;61711;52.266;10.542;2023-07-09T07:54:40;11.43;;;10.32;;
73474;SDS011;61711;52.266;10.542;2023-07-09T07:57:06;13.02;;;10.48;;
73474;SDS011;61711;52.266;10.542;2023-07-09T07:59:34;10.95;;;9.82;;
73474;SDS011;61711;52.266;10.542;2023-07-09T08:02:00;13.15;;;10.30;;
73474;SDS011;61711;52.266;10.542;2023-07-09T08:04:26;11.20;;;10.02;;
73474;SDS011;61711;52.266;10.542;2023-07-09T08:06:53;10.95;;;9.85;;
73474;SDS011;61711;52.266;10.542;2023-07-09T08:09:19;11.93;;;9.65;;
73474;SDS011;61711;52.266;10.542;2023-07-09T08:11:45;12.63;;;10.02;;
73474;SDS011;61711;52.266;10.542;2023-07-09T08:14:11;11.02;;;9.50;;
73474;SDS011;61711;52.266;10.542;2023-07-09T08:16:38;10.68;;;9.60;;
73474;SDS011;61711;52.266;10.542;2023-07-09T08:19:04;10.63;;;9.50;;
73474;SDS011;61711;52.266;10.542;2023-07-09T08:21:30;12.35;;;9.63;;
73474;SDS011;61711;52.266;10.542;2023-07-09T08:23:56;12.68;;;9.73;;
73474;SDS011;61711;52.266;10.542;2023-07-09T08:26:22;11.02;;;9.45;;
73474;SDS011;61711;52.266;10.542;2023-07-09T08:28:49;11.65;;;9.55;;
73474;SDS011;61711;52.266;10.542;2023-07-09T08:31:16;12.25;;;10.23;;
73474;SDS011;61711;52.266;10.542;2023-07-09T08:33:42;26.00;;;9.77;;
73474;SDS011;61711;52.266;10.542;2023-07-09T08:36:08;10.57;;;9.57;;
73474;SDS011;61711;52.266;10.542;2023-07-09T08:38:34;11.52;;;10.27;;
73474;SDS011;61711;52.266;10.542;2023-07-09T08:41:01;10.05;;;9.15;;
73474;SDS011;61711;52.266;10.542;2023-07-09T08:43:36;11.07;;;10.02;;
73474;SDS011;61711;52.266;10.542;2023-07-09T08:49:12;13.13;;;10.25;;
73474;SDS011;61711;52.266;10.542;2023-07-09T08:51:41;11.07;;;9.98;;
73474;SDS011;61711;52.266;10.542;2023-07-09T08:54:20;11.43;;;10.30;;
73474;SDS011;61711;52.266;10.542;2023-07-09T08:56:50;11.32;;;10.20;;
73474;SDS011;61711;52.266;10.542;2023-07-09T08:59:17;10.75;;;9.75;;
73474;SDS011;61711;52.266;10.542;2023-07-09T09:01:53;11.55;;;10.30;;
73474;SDS011;61711;52.266;10.542;2023-07-09T09:04:29;10.88;;;9.82;;
73474;SDS011;61711;52.266;10.542;2023-07-09T09:06:59;10.60;;;9.60;;
73474;SDS011;61711;52.266;10.542;2023-07-09T09:09:38;11.68;;;10.00;;
73474;SDS011;61711;52.266;10.542;2023-07-09T09:14:42;11.90;;;9.73;;
73474;SDS011;61711;52.266;10.542;2023-07-09T09:17:17;10.27;;;9.20;;
73474;SDS011;61711;52.266;10.542;2023-07-09T09:19:53;9.48;;;8.57;;
73474;SDS011;61711;52.266;10.542;2023-07-09T09:22:28;9.90;;;9.00;;
73474;SDS011;61711;52.266;10.542;2023-07-09T09:27:27;11.07;;;8.70;;
73474;SDS011;61711;52.266;10.542;2023-07-09T09:29:53;12.27;;;8.82;;
73474;SDS011;61711;52.266;10.542;2023-07-09T09:32:25;9.77;;;8.82;;
73474;SDS011;61711;52.266;10.542;2023-07-09T09:34:51;9.73;;;8.82;;
73474;SDS011;61711;52.266;10.542;2023-07-09T09:37:23;13.45;;;9.15;;
73474;SDS011;61711;52.266;10.542;2023-07-09T09:39:49;9.85;;;8.98;;
73474;SDS011;61711;52.266;10.542;2023-07-09T09:42:15;10.00;;;9.07;;
73474;SDS011;61711;52.266;10.542;2023-07-09T09:44:45;10.57;;;9.48;;
73474;SDS011;61711;52.266;10.542;2023-07-09T09:47:11;9.52;;;8.43;;
73474;SDS011;61711;52.266;10.542;2023-07-09T09:49:41;9.30;;;8.27;;
73474;SDS011;61711;52.266;10.542;2023-07-09T09:52:14;8.82;;;7.82;;
73474;SDS011;61711;52.266;10.542;2023-07-09T09:54:43;8.73;;;7.90;;
73474;SDS011;61711;52.266;10.542;2023-07-09T09:57:16;8.52;;;7.50;;
73474;SDS011;61711;52.266;10.542;2023-07-09T09:59:42;9.65;;;7.70;;
73474;SDS011;61711;52.266;10.542;2023-07-09T10:02:18;7.47;;;6.78;;
73474;SDS011;61711;52.266;10.542;2023-07-09T10:04:45;8.15;;;7.10;;
73474;SDS011;61711;52.266;10.542;2023-07-09T10:07:13;8.63;;;7.30;;
73474;SDS011;61711;52.266;10.542;2023-07-09T10:09:49;10.52;;;7.18;;
73474;SDS011;61711;52.266;10.542;2023-07-09T10:25:48;9.02;;;6.80;;
73474;SDS011;61711;52.266;10.542;2023-07-09T10:30:58;7.30;;;6.45;;
73474;SDS011;61711;52.266;10.542;2023-07-09T10:33:29;7.22;;;6.53;;
73474;SDS011;61711;52.266;10.542;2023-07-09T10:41:01;8.65;;;6.43;;
73474;SDS011;61711;52.266;10.542;2023-07-09T10:43:38;7.25;;;6.53;;
73474;SDS011;61711;52.266;10.542;2023-07-09T10:46:07;7.00;;;6.30;;
73474;SDS011;61711;52.266;10.542;2023-07-09T10:48:36;8.30;;;6.95;;
73474;SDS011;61711;52.266;10.542;2023-07-09T10:51:03;7.85;;;6.75;;
73474;SDS011;61711;52.266;10.542;2023-07-09T10:53:36;8.57;;;6.22;;
73474;SDS011;61711;52.266;10.542;2023-07-09T11:00:56;8.32;;;6.80;;
73474;SDS011;61711;52.266;10.542;2023-07-09T11:06:13;6.78;;;6.18;;
73474;SDS011;61711;52.266;10.542;2023-07-09T11:11:08;6.85;;;6.10;;
73474;SDS011;61711;52.266;10.542;2023-07-09T11:13:48;7.35;;;6.15;;
73474;SDS011;61711;52.266;10.542;2023-07-09T11:16:20;7.03;;;6.15;;
73474;SDS011;61711;52.266;10.542;2023-07-09T11:19:00;7.13;;;6.28;;
73474;SDS011;61711;52.266;10.542;2023-07-09T11:21:27;9.43;;;6.53;;
73474;SDS011;61711;52.266;10.542;2023-07-09T11:23:54;8.27;;;6.00;;
73474;SDS011;61711;52.266;10.542;2023-07-09T11:28:47;7.30;;;6.60;;
73474;SDS011;61711;52.266;10.542;2023-07-09T11:34:01;7.15;;;6.35;;
73474;SDS011;61711;52.266;10.542;2023-07-09T11:36:29;7.07;;;6.28;;
73474;SDS011;61711;52.266;10.542;2023-07-09T11:38:57;8.73;;;6.57;;
73474;SDS011;61711;52.266;10.542;2023-07-09T11:44:24;7.00;;;6.30;;
73474;SDS011;61711;52.266;10.542;2023-07-09T11:49:27;7.43;;;6.40;;
73474;SDS011;61711;52.266;10.542;2023-07-09T11:51:59;7.13;;;6.47;;
73474;SDS011;61711;52.266;10.542;2023-07-09T11:54:26;10.05;;;6.55;;
73474;SDS011;61711;52.266;10.542;2023-07-09T11:56:53;7.57;;;6.57;;
73474;SDS011;61711;52.266;10.542;2023-07-09T11:59:19;6.97;;;6.28;;
73474;SDS011;61711;52.266;10.542;2023-07-09T12:01:45;11.40;;;6.70;;
73474;SDS011;61711;52.266;10.542;2023-07-09T12:04:17;8.43;;;6.88;;
73474;SDS011;61711;52.266;10.542;2023-07-09T12:06:44;8.13;;;6.72;;
73474;SDS011;61711;52.266;10.542;2023-07-09T12:09:14;8.00;;;6.93;;
73474;SDS011;61711;52.266;10.542;2023-07-09T12:11:43;8.32;;;6.32;;
73474;SDS011;61711;52.266;10.542;2023-07-09T12:14:17;7.47;;;6.78;;
73474;SDS011;61711;52.266;10.542;2023-07-09T12:16:47;7.68;;;6.55;;
73474;SDS011;61711;52.266;10.542;2023-07-09T12:19:14;7.93;;;6.68;;
73474;SDS011;61711;52.266;10.542;2023-07-09T12:21:42;7.25;;;6.55;;
73474;SDS011;61711;52.266;10.542;2023-07-09T12:26:42;10.07;;;6.55;;
73474;SDS011;61711;52.266;10.542;2023-07-09T12:29:08;7.20;;;6.50;;
73474;SDS011;61711;52.266;10.542;2023-07-09T12:31:35;8.68;;;6.78;;
73474;SDS011;61711;52.266;10.542;2023-07-09T12:34:01;8.45;;;6.72;;
73474;SDS011;61711;52.266;10.542;2023-07-09T12:36:27;7.97;;;7.13;;
73474;SDS011;61711;52.266;10.542;2023-07-09T12:38:55;7.65;;;6.93;;
73474;SDS011;61711;52.266;10.542;2023-07-09T12:41:24;7.82;;;6.90;;
73474;SDS011;61711;52.266;10.542;2023-07-09T12:43:52;9.60;;;6.80;;
73474;SDS011;61711;52.266;10.542;2023-07-09T12:46:19;7.43;;;6.72;;
73474;SDS011;61711;52.266;10.542;2023-07-09T12:48:45;8.80;;;6.90;;
73474;SDS011;61711;52.266;10.542;2023-07-09T12:51:21;9.70;;;6.57;;
73474;SDS011;61711;52.266;10.542;2023-07-09T12:53:59;10.25;;;6.80;;
73474;SDS011;61711;52.266;10.542;2023-07-09T12:56:25;6.55;;;6.05;;
73474;SDS011;61711;52.266;10.542;2023-07-09T12:58:55;7.05;;;6.35;;
73474;SDS011;61711;52.266;10.542;2023-07-09T13:01:22;7.07;;;6.38;;
73474;SDS011;61711;52.266;10.542;2023-07-09T13:03:54;6.93;;;6.20;;
73474;SDS011;61711;52.266;10.542;2023-07-09T13:06:28;7.32;;;6.50;;
73474;SDS011;61711;52.266;10.542;2023-07-09T13:08:58;7.00;;;6.13;;
73474;SDS011;61711;52.266;10.542;2023-07-09T13:11:25;7.22;;;6.43;;
73474;SDS011;61711;52.266;10.542;2023-07-09T13:13:58;8.02;;;6.30;;
73474;SDS011;61711;52.266;10.542;2023-07-09T13:16:25;7.35;;;6.68;;
73474;SDS011;61711;52.266;10.542;2023-07-09T13:18:51;8.07;;;7.10;;
73474;SDS011;61711;52.266;10.542;2023-07-09T13:21:17;9.73;;;8.73;;
73474;SDS011;61711;52.266;10.542;2023-07-09T13:23:43;7.88;;;7.05;;
73474;SDS011;61711;52.266;10.542;2023-07-09T13:26:11;8.73;;;7.85;;
73474;SDS011;61711;52.266;10.542;2023-07-09T13:28:37;14.07;;;9.40;;
73474;SDS011;61711;52.266;10.542;2023-07-09T13:31:11;10.25;;;8.75;;
73474;SDS011;61711;52.266;10.542;2023-07-09T13:33:39;9.73;;;8.73;;
73474;SDS011;61711;52.266;10.542;2023-07-09T13:36:05;9.80;;;8.80;;
73474;SDS011;61711;52.266;10.542;2023-07-09T13:38:32;10.55;;;9.45;;
73474;SDS011;61711;52.266;10.542;2023-07-09T13:40:59;9.63;;;8.70;;
73474;SDS011;61711;52.266;10.542;2023-07-09T13:45:55;8.93;;;8.10;;
73474;SDS011;61711;52.266;10.542;2023-07-09T13:48:24;8.45;;;7.53;;
73474;SDS011;61711;52.266;10.542;2023-07-09T13:50:51;10.00;;;7.88;;
73474;SDS011;61711;52.266;10.542;2023-07-09T13:53:18;8.68;;;7.60;;
73474;SDS011;61711;52.266;10.542;2023-07-09T13:55:45;8.38;;;7.50;;
73474;SDS011;61711;52.266;10.542;2023-07-09T13:58:12;9.48;;;6.97;;
73474;SDS011;61711;52.266;10.542;2023-07-09T14:00:39;7.53;;;6.72;;
73474;SDS011;61711;52.266;10.542;2023-07-09T14:03:25;9.00;;;7.40;;
73474;SDS011;61711;52.266;10.542;2023-07-09T14:05:51;9.32;;;6.88;;
73474;SDS011;61711;52.266;10.542;2023-07-09T14:08:18;7.60;;;6.55;;
73474;SDS011;61711;52.266;10.542;2023-07-09T14:10:45;10.68;;;6.47;;
73474;SDS011;61711;52.266;10.542;2023-07-09T14:13:15;8.10;;;6.90;;
73474;SDS011;61711;52.266;10.542;2023-07-09T14:15:42;7.35;;;6.60;;
73474;SDS011;61711;52.266;10.542;2023-07-09T14:18:15;7.78;;;7.07;;
73474;SDS011;61711;52.266;10.542;2023-07-09T14:20:41;9.05;;;7.00;;
73474;SDS011;61711;52.266;10.542;2023-07-09T14:23:11;10.25;;;7.07;;
73474;SDS011;61711;52.266;10.542;2023-07-09T14:25:37;8.45;;;7.05;;
73474;SDS011;61711;52.266;10.542;2023-07-09T14:28:04;7.63;;;6.93;;
73474;SDS011;61711;52.266;10.542;2023-07-09T14:30:30;8.20;;;7.40;;
73474;SDS011;61711;52.266;10.542;2023-07-09T14:32:56;8.93;;;7.72;;
73474;SDS011;61711;52.266;10.542;2023-07-09T14:35:23;8.13;;;7.43;;
73474;SDS011;61711;52.266;10.542;2023-07-09T14:37:50;7.90;;;7.20;;
73474;SDS011;61711;52.266;10.542;2023-07-09T14:40:17;9.50;;;7.43;;
73474;SDS011;61711;52.266;10.542;2023-07-09T14:42:45;11.07;;;7.55;;
73474;SDS011;61711;52.266;10.542;2023-07-09T14:47:43;8.52;;;7.15;;
73474;SDS011;61711;52.266;10.542;2023-07-09T14:50:10;8.80;;;7.50;;
73474;SDS011;61711;52.266;10.542;2023-07-09T14:52:36;9.00;;;7.53;;
73474;SDS011;61711;52.266;10.542;2023-07-09T14:55:02;10.63;;;7.57;;
73474;SDS011;61711;52.266;10.542;2023-07-09T14:57:28;7.47;;;6.75;;
73474;SDS011;61711;52.266;10.542;2023-07-09T14:59:55;7.82;;;7.07;;
73474;SDS011;61711;52.266;10.542;2023-07-09T15:02:25;8.77;;;7.53;;
73474;SDS011;61711;52.266;10.542;2023-07-09T15:04:56;7.97;;;7.20;;
73474;SDS011;61711;52.266;10.542;2023-07-09T15:07:22;9.95;;;7.38;;
73474;SDS011;61711;52.266;10.542;2023-07-09T15:12:22;8.75;;;7.07;;
73474;SDS011;61711;52.266;10.542;2023-07-09T15:14:50;7.68;;;6.95;;
73474;SDS011;61711;52.266;10.542;2023-07-09T15:17:16;7.88;;;7.07;;
73474;SDS011;61711;52.266;10.542;2023-07-09T15:19:42;8.32;;;7.20;;
73474;SDS011;61711;52.266;10.542;2023-07-09T15:22:14;9.48;;;7.15;;
73474;SDS011;61711;52.266;10.542;2023-07-09T15:24:42;8.43;;;7.50;;
73474;SDS011;61711;52.266;10.542;2023-07-09T15:27:08;8.10;;;7.40;;
73474;SDS011;61711;52.266;10.542;2023-07-09T15:29:34;9.95;;;7.10;;
73474;SDS011;61711;52.266;10.542;2023-07-09T15:32:00;7.93;;;7.13;;
73474;SDS011;61711;52.266;10.542;2023-07-09T15:34:26;9.40;;;7.10;;